createdAt,value
2024-05-09T00:02:19.988Z,17.05
2024-05-09T00:04:49.677Z,17.77
2024-05-09T00:07:21.906Z,19.08
2024-05-09T00:09:51.518Z,22.60
2024-05-09T00:12:21.190Z,19.23
2024-05-09T00:14:50.802Z,19.08
2024-05-09T00:17:20.435Z,20.50
2024-05-09T00:19:49.997Z,21.20
2024-05-09T00:22:22.110Z,18.33
2024-05-09T00:24:51.588Z,21.63
2024-05-09T00:27:21.124Z,23.60
2024-05-09T00:29:50.569Z,22.85
2024-05-09T00:32:20.474Z,22.17
2024-05-09T00:34:50.114Z,23.65
2024-05-09T00:37:22.569Z,24.88
2024-05-09T00:39:52.014Z,20.60
2024-05-09T00:42:21.514Z,26.85
2024-05-09T00:44:51.129Z,29.20
2024-05-09T00:47:20.803Z,26.02
2024-05-09T00:49:51.390Z,29.98
2024-05-09T00:52:25.049Z,23.90
2024-05-09T00:54:54.629Z,32.55
2024-05-09T00:57:24.455Z,28.02
2024-05-09T00:59:54.663Z,27.17
2024-05-09T01:02:25.053Z,22.90
2024-05-09T01:04:54.811Z,23.70
2024-05-09T01:07:27.372Z,24.45
2024-05-09T01:09:56.975Z,21.65
2024-05-09T01:12:27.417Z,28.30
2024-05-09T01:14:56.977Z,24.00
2024-05-09T01:17:27.304Z,24.70
2024-05-09T01:19:56.986Z,25.75
2024-05-09T01:22:31.968Z,23.77
2024-05-09T01:25:04.096Z,24.63
2024-05-09T01:27:34.624Z,23.25
2024-05-09T01:30:09.590Z,21.92
2024-05-09T01:32:44.284Z,20.25
2024-05-09T01:35:13.905Z,23.08
2024-05-09T01:37:43.434Z,21.83
2024-05-09T01:40:22.015Z,20.83
2024-05-09T01:42:54.342Z,23.08
2024-05-09T01:45:24.239Z,19.38
2024-05-09T01:47:53.900Z,19.15
2024-05-09T01:50:35.724Z,20.02
2024-05-09T01:53:08.793Z,20.52
2024-05-09T01:55:41.205Z,20.50
2024-05-09T01:58:10.765Z,19.13
2024-05-09T02:00:42.665Z,19.77
2024-05-09T02:05:48.392Z,24.80
2024-05-09T02:08:19.536Z,28.45
2024-05-09T02:10:52.282Z,24.55
2024-05-09T02:13:21.884Z,25.45
2024-05-09T02:15:52.460Z,27.73
2024-05-09T02:18:22.390Z,30.52
2024-05-09T02:20:52.351Z,34.85
2024-05-09T02:23:22.509Z,38.13
2024-05-09T02:25:54.768Z,33.30
2024-05-09T02:28:24.323Z,36.10
2024-05-09T02:30:53.794Z,33.25
2024-05-09T02:33:23.651Z,34.42
2024-05-09T02:35:53.385Z,32.58
2024-05-09T02:38:20.259Z,34.45
2024-05-09T02:40:49.775Z,39.53
2024-05-09T02:43:21.859Z,35.55
2024-05-09T02:45:48.667Z,34.92
2024-05-09T02:48:18.433Z,35.30
2024-05-09T02:50:45.435Z,32.00
2024-05-09T02:53:15.371Z,33.53
2024-05-09T02:55:42.917Z,38.85
2024-05-09T02:58:13.064Z,35.72
2024-05-09T03:00:43.175Z,35.00
2024-05-09T03:03:15.119Z,38.65
2024-05-09T03:05:42.901Z,39.63
2024-05-09T03:08:12.942Z,42.03
2024-05-09T03:10:40.117Z,39.45
2024-05-09T03:13:10.082Z,39.10
2024-05-09T03:15:37.215Z,40.47
2024-05-09T03:18:10.046Z,36.15
2024-05-09T03:20:38.073Z,39.85
2024-05-09T03:23:10.266Z,41.17
2024-05-09T03:25:37.446Z,38.08
2024-05-09T03:28:07.550Z,39.72
2024-05-09T03:30:41.164Z,35.25
2024-05-09T03:33:18.053Z,37.75
2024-05-09T03:35:47.050Z,39.22
2024-05-09T03:38:17.206Z,37.47
2024-05-09T03:40:48.347Z,39.67
2024-05-09T03:43:18.520Z,37.90
2024-05-09T03:45:49.393Z,40.03
2024-05-09T03:48:19.264Z,36.05
2024-05-09T03:50:49.037Z,38.03
2024-05-09T03:53:16.059Z,39.65
2024-05-09T03:55:45.688Z,38.90
2024-05-09T03:58:14.446Z,38.83
2024-05-09T04:00:44.675Z,35.85
2024-05-09T04:03:12.991Z,41.80
2024-05-09T04:05:45.986Z,33.80
2024-05-09T04:08:14.012Z,46.22
2024-05-09T04:10:44.183Z,44.33
2024-05-09T04:13:11.242Z,37.58
2024-05-09T04:15:40.907Z,43.35
2024-05-09T04:18:08.053Z,42.90
2024-05-09T04:20:40.314Z,34.85
2024-05-09T04:23:11.923Z,38.50
2024-05-09T04:25:45.084Z,44.72
2024-05-09T04:28:12.712Z,34.90
2024-05-09T04:30:42.846Z,38.80
2024-05-09T04:33:12.480Z,41.35
2024-05-09T04:35:44.974Z,38.53
2024-05-09T04:38:15.726Z,39.53
2024-05-09T04:40:45.804Z,43.10
2024-05-09T04:43:18.556Z,45.35
2024-05-09T04:45:48.462Z,41.03
2024-05-09T04:48:16.593Z,40.78
2024-05-09T04:50:46.463Z,39.10
2024-05-09T04:53:17.908Z,42.60
2024-05-09T04:55:48.070Z,38.92
2024-05-09T04:58:14.995Z,40.67
2024-05-09T05:00:44.551Z,38.53
2024-05-09T05:03:14.506Z,38.70
2024-05-09T05:05:46.524Z,42.40
2024-05-09T05:08:14.710Z,40.70
2024-05-09T05:10:48.448Z,40.30
2024-05-09T05:13:17.812Z,42.17
2024-05-09T05:15:48.524Z,40.95
2024-05-09T05:18:16.426Z,43.42
2024-05-09T05:20:46.403Z,41.67
2024-05-09T05:23:15.144Z,44.63
2024-05-09T05:25:48.429Z,46.15
2024-05-09T05:28:16.622Z,49.97
2024-05-09T05:30:46.582Z,46.15
2024-05-09T05:33:15.270Z,43.97
2024-05-09T05:35:45.242Z,45.58
2024-05-09T05:38:12.192Z,44.72
2024-05-09T05:40:41.788Z,44.60
2024-05-09T05:43:17.057Z,39.45
2024-05-09T05:45:46.814Z,38.30
2024-05-09T05:48:18.854Z,41.30
2024-05-09T05:50:46.216Z,38.50
2024-05-09T05:53:15.997Z,39.90
2024-05-09T05:55:42.968Z,39.95
2024-05-09T05:58:15.238Z,37.92
2024-05-09T06:00:42.781Z,39.08
2024-05-09T06:03:14.449Z,37.67
2024-05-09T06:05:43.666Z,35.75
2024-05-09T06:08:14.105Z,32.63
2024-05-09T06:10:41.965Z,44.33
2024-05-09T06:13:13.708Z,33.53
2024-05-09T06:15:44.978Z,37.40
2024-05-09T06:18:14.979Z,34.97
2024-05-09T06:20:43.715Z,34.53
2024-05-09T06:23:14.595Z,32.40
2024-05-09T06:25:42.419Z,31.83
2024-05-09T06:28:12.235Z,33.28
2024-05-09T06:30:42.320Z,32.60
2024-05-09T06:33:16.523Z,29.75
2024-05-09T06:35:44.406Z,31.58
2024-05-09T06:38:14.195Z,32.50
2024-05-09T06:40:43.683Z,29.17
2024-05-09T06:43:15.553Z,30.95
2024-05-09T06:45:44.294Z,32.47
2024-05-09T06:48:16.687Z,27.52
2024-05-09T06:50:46.507Z,26.70
2024-05-09T06:53:17.213Z,31.42
2024-05-09T06:55:44.384Z,28.67
2024-05-09T06:58:14.232Z,24.75
2024-05-09T07:00:42.177Z,25.92
2024-05-09T07:03:14.406Z,22.55
2024-05-09T07:05:48.052Z,22.60
2024-05-09T07:08:19.064Z,23.60
2024-05-09T07:10:46.788Z,25.58
2024-05-09T07:13:17.857Z,23.00
2024-05-09T07:15:45.057Z,18.92
2024-05-09T07:18:17.214Z,24.50
2024-05-09T07:20:49.540Z,20.38
2024-05-09T07:23:20.245Z,20.25
2024-05-09T07:25:47.453Z,20.58
2024-05-09T07:28:18.199Z,19.83
2024-05-09T07:30:46.188Z,19.40
2024-05-09T07:33:20.050Z,19.35
2024-05-09T07:35:51.236Z,19.20
2024-05-09T07:38:21.217Z,18.20
2024-05-09T07:40:48.452Z,13.82
2024-05-09T07:43:18.344Z,17.67
2024-05-09T07:45:52.098Z,16.38
2024-05-09T07:52:45.943Z,15.38
2024-05-09T07:53:51.048Z,13.88
2024-05-09T07:56:22.624Z,13.98
2024-05-09T07:58:55.860Z,14.93
2024-05-09T08:01:26.053Z,17.08
2024-05-09T08:03:57.372Z,16.08
2024-05-09T08:06:27.488Z,10.38
2024-05-09T08:09:05.109Z,10.45
2024-05-09T08:11:34.861Z,8.38
2024-05-09T08:14:04.414Z,9.55
2024-05-09T08:16:31.394Z,9.38
2024-05-09T08:19:01.231Z,12.02
2024-05-09T08:21:31.146Z,7.82
2024-05-09T08:24:00.980Z,8.32
2024-05-09T08:26:27.906Z,10.32
2024-05-09T08:28:57.428Z,12.88
2024-05-09T08:31:24.410Z,6.30
2024-05-09T08:33:56.522Z,6.40
2024-05-09T08:36:23.615Z,8.30
2024-05-09T08:38:55.805Z,6.47
2024-05-09T08:41:22.768Z,7.57
2024-05-09T08:43:52.514Z,8.02
2024-05-09T08:46:19.704Z,9.63
2024-05-09T08:48:52.379Z,6.60
2024-05-09T08:51:19.545Z,8.93
2024-05-09T08:53:51.978Z,7.45
2024-05-09T08:56:21.704Z,7.28
2024-05-09T08:58:52.451Z,5.82
2024-05-09T09:01:22.778Z,6.60
2024-05-09T09:03:54.739Z,7.53
2024-05-09T09:06:22.131Z,12.35
2024-05-09T09:08:51.794Z,5.68
2024-05-09T09:11:21.503Z,7.35
2024-05-09T09:13:51.362Z,8.02
2024-05-09T09:16:18.344Z,6.30
2024-05-09T09:18:49.719Z,4.60
2024-05-09T09:21:17.818Z,5.53
2024-05-09T09:23:47.488Z,5.13
2024-05-09T09:26:18.851Z,5.60
2024-05-09T09:28:48.756Z,5.72
2024-05-09T09:31:21.247Z,8.93
2024-05-09T09:33:48.694Z,9.25
2024-05-09T09:36:19.112Z,6.57
2024-05-09T09:38:47.796Z,3.30
2024-05-09T09:41:20.971Z,3.60
2024-05-09T09:43:51.678Z,5.55
2024-05-09T09:46:22.589Z,3.63
2024-05-09T09:48:49.774Z,4.80
2024-05-09T09:51:19.603Z,5.15
2024-05-09T09:53:49.171Z,4.60
2024-05-09T09:56:20.280Z,3.67
2024-05-09T09:58:51.197Z,5.15
2024-05-09T10:01:20.919Z,5.70
2024-05-09T10:03:48.210Z,4.80
2024-05-09T10:06:18.541Z,6.85
2024-05-09T10:08:47.319Z,5.22
2024-05-09T10:11:22.063Z,8.23
2024-05-09T10:13:53.808Z,11.70
2024-05-09T10:16:24.872Z,4.45
2024-05-09T10:18:52.116Z,9.23
2024-05-09T10:21:22.884Z,7.72
2024-05-09T10:23:58.071Z,7.25
2024-05-09T10:26:37.867Z,6.35
2024-05-09T10:29:14.562Z,5.07
2024-05-09T10:31:45.898Z,7.47
2024-05-09T10:34:20.860Z,8.33
2024-05-09T10:36:55.733Z,5.53
2024-05-09T10:39:25.114Z,5.80
2024-05-09T10:41:54.735Z,5.50
2024-05-09T10:44:24.412Z,6.43
2024-05-09T10:46:54.910Z,3.35
2024-05-09T10:49:22.603Z,7.57
2024-05-09T10:51:52.368Z,5.07
2024-05-09T10:54:19.495Z,5.57
2024-05-09T10:56:49.699Z,9.05
2024-05-09T10:59:16.611Z,3.60
2024-05-09T11:01:49.060Z,9.50
2024-05-09T11:04:16.704Z,9.55
2024-05-09T11:06:48.964Z,3.88
2024-05-09T11:09:16.282Z,6.07
2024-05-09T11:11:45.998Z,4.72
2024-05-09T11:14:13.645Z,4.03
2024-05-09T11:16:43.415Z,3.75
2024-05-09T11:19:15.093Z,3.28
2024-05-09T11:21:45.077Z,3.08
2024-05-09T11:24:12.300Z,6.25
2024-05-09T11:26:41.907Z,4.55
2024-05-09T11:29:08.841Z,3.13
2024-05-09T11:31:48.375Z,5.22
2024-05-09T11:34:18.392Z,4.40
2024-05-09T11:36:48.317Z,5.10
2024-05-09T11:39:15.351Z,3.75
2024-05-09T11:41:44.913Z,5.28
2024-05-09T11:44:13.139Z,6.85
2024-05-09T11:46:43.909Z,4.07
2024-05-09T11:49:13.663Z,7.10
2024-05-09T11:51:43.388Z,3.40
2024-05-09T11:54:12.996Z,5.57
2024-05-09T11:56:39.978Z,9.10
2024-05-09T11:59:09.523Z,6.70
2024-05-09T12:01:36.582Z,3.72
2024-05-09T12:04:06.776Z,2.83
2024-05-09T12:06:34.043Z,3.70
2024-05-09T12:09:06.914Z,3.38
2024-05-09T12:11:34.250Z,5.13
2024-05-09T12:14:04.046Z,4.32
2024-05-09T12:16:31.567Z,4.72
2024-05-09T12:19:01.646Z,4.00
2024-05-09T12:21:28.667Z,7.43
2024-05-09T12:23:58.114Z,9.65
2024-05-09T12:26:28.451Z,5.00
2024-05-09T12:28:58.000Z,5.78
2024-05-09T12:31:24.966Z,6.38
2024-05-09T12:33:54.727Z,3.55
2024-05-09T12:36:21.824Z,5.05
2024-05-09T12:38:51.722Z,5.03
2024-05-09T12:41:18.689Z,6.07
2024-05-09T12:43:51.007Z,6.15
2024-05-09T12:46:20.453Z,3.28
2024-05-09T12:48:50.299Z,6.63
2024-05-09T12:51:17.455Z,4.72
2024-05-09T12:53:47.195Z,6.90
2024-05-09T12:56:14.163Z,3.75
2024-05-09T12:58:43.744Z,4.63
2024-05-09T13:01:13.342Z,4.82
2024-05-09T13:03:43.232Z,6.68
2024-05-09T13:06:10.470Z,3.53
2024-05-09T13:08:40.097Z,7.15
2024-05-09T13:11:07.189Z,4.53
2024-05-09T13:13:36.778Z,4.97
2024-05-09T13:16:04.586Z,8.70
2024-05-09T13:18:37.150Z,7.22
2024-05-09T13:21:04.631Z,3.47
2024-05-09T13:23:34.122Z,5.43
2024-05-09T13:26:00.985Z,7.25
2024-05-09T13:28:32.311Z,2.95
2024-05-09T13:30:59.485Z,6.05
2024-05-09T13:33:29.172Z,4.88
2024-05-09T13:35:58.987Z,4.60
2024-05-09T13:38:28.778Z,5.75
2024-05-09T13:40:55.647Z,5.65
2024-05-09T13:43:25.485Z,4.95
2024-05-09T13:45:55.222Z,5.72
2024-05-09T13:48:24.968Z,5.60
2024-05-09T13:50:52.292Z,4.30
2024-05-09T13:53:25.238Z,3.65
2024-05-09T13:55:52.950Z,3.17
2024-05-09T13:58:24.732Z,5.00
2024-05-09T14:00:52.372Z,4.78
2024-05-09T14:03:22.198Z,6.45
2024-05-09T14:05:50.545Z,3.53
2024-05-09T14:08:22.344Z,4.15
2024-05-09T14:10:53.755Z,6.80
2024-05-09T14:13:23.505Z,4.17
2024-05-09T14:15:50.724Z,8.60
2024-05-09T14:18:20.702Z,5.68
2024-05-09T14:20:47.628Z,6.38
2024-05-09T14:23:17.267Z,3.70
2024-05-09T14:25:48.176Z,3.80
2024-05-09T14:28:22.586Z,5.35
2024-05-09T14:30:49.700Z,9.57
2024-05-09T14:33:25.359Z,5.13
2024-05-09T14:35:52.733Z,4.60
2024-05-09T14:38:22.591Z,3.63
2024-05-09T14:40:50.741Z,4.45
2024-05-09T14:43:23.049Z,3.47
2024-05-09T14:45:50.138Z,9.13
2024-05-09T14:48:20.203Z,3.67
2024-05-09T14:50:48.023Z,4.65
2024-05-09T14:53:17.559Z,3.42
2024-05-09T14:55:44.684Z,2.92
2024-05-09T14:58:14.720Z,5.82
2024-05-09T15:00:50.101Z,4.13
2024-05-09T15:03:22.200Z,6.22
2024-05-09T15:05:50.320Z,4.57
2024-05-09T15:08:20.738Z,3.28
2024-05-09T15:10:49.861Z,5.50
2024-05-09T15:13:20.205Z,6.65
2024-05-09T15:15:50.212Z,4.25
2024-05-09T15:18:20.557Z,4.30
2024-05-09T15:20:49.027Z,3.35
2024-05-09T15:23:18.660Z,2.85
2024-05-09T15:25:45.592Z,3.53
2024-05-09T15:28:15.595Z,5.35
2024-05-09T15:30:46.169Z,6.65
2024-05-09T15:33:19.225Z,4.65
2024-05-09T15:35:47.103Z,5.00
2024-05-09T15:38:18.453Z,5.30
2024-05-09T15:40:45.874Z,5.40
2024-05-09T15:43:16.693Z,7.28
2024-05-09T15:45:44.070Z,4.35
2024-05-09T15:48:14.948Z,3.88
2024-05-09T15:50:45.145Z,4.90
2024-05-09T15:53:15.507Z,6.90
2024-05-09T15:55:43.042Z,4.22
2024-05-09T15:58:13.253Z,2.88
2024-05-09T16:00:43.529Z,3.90
2024-05-09T16:03:15.442Z,7.82
2024-05-09T16:05:46.926Z,4.18
2024-05-09T16:08:18.170Z,6.35
2024-05-09T16:10:47.337Z,4.15
2024-05-09T16:13:18.032Z,5.25
2024-05-09T16:15:45.382Z,4.45
2024-05-09T16:18:15.525Z,5.40
2024-05-09T16:20:48.256Z,2.83
2024-05-09T16:23:19.488Z,2.45
2024-05-09T16:25:48.019Z,4.70
2024-05-09T16:28:18.268Z,3.38
2024-05-09T16:30:45.356Z,6.15
2024-05-09T16:33:15.211Z,4.85
2024-05-09T16:35:42.334Z,4.38
2024-05-09T16:38:14.966Z,4.45
2024-05-09T16:40:42.189Z,5.93
2024-05-09T16:43:12.625Z,5.65
2024-05-09T16:45:41.595Z,3.95
2024-05-09T16:48:12.400Z,4.80
2024-05-09T16:50:39.495Z,6.15
2024-05-09T16:53:09.402Z,2.80
2024-05-09T16:55:40.304Z,7.70
2024-05-09T16:58:12.565Z,5.50
2024-05-09T17:00:42.847Z,3.75
2024-05-09T17:03:16.213Z,3.63
2024-05-09T17:05:45.985Z,7.15
2024-05-09T17:08:18.366Z,3.67
2024-05-09T17:10:49.525Z,6.00
2024-05-09T17:13:20.099Z,6.40
2024-05-09T17:15:54.560Z,4.32
2024-05-09T17:18:21.960Z,3.42
2024-05-09T17:20:52.574Z,8.50
2024-05-09T17:23:19.519Z,3.30
2024-05-09T17:25:51.743Z,6.63
2024-05-09T17:28:19.163Z,4.45
2024-05-09T17:30:49.234Z,7.03
2024-05-09T17:33:16.325Z,4.03
2024-05-09T17:35:49.751Z,6.75
2024-05-09T17:38:16.711Z,5.15
2024-05-09T17:40:46.276Z,7.18
2024-05-09T17:43:15.863Z,4.57
2024-05-09T17:45:45.721Z,5.13
2024-05-09T17:48:13.122Z,5.22
2024-05-09T17:50:43.335Z,5.20
2024-05-09T17:53:10.958Z,6.45
2024-05-09T17:55:41.220Z,2.80
2024-05-09T17:58:09.540Z,3.15
2024-05-09T18:00:42.753Z,9.90
2024-05-09T18:03:12.131Z,8.43
2024-05-09T18:05:44.502Z,3.65
2024-05-09T18:08:12.212Z,5.15
2024-05-09T18:10:43.162Z,3.90
2024-05-09T18:13:11.296Z,4.20
2024-05-09T18:15:45.181Z,3.83
2024-05-09T18:18:13.391Z,5.05
2024-05-09T18:20:45.673Z,10.07
2024-05-09T18:23:16.429Z,11.60
2024-05-09T18:25:48.199Z,13.95
2024-05-09T18:28:16.807Z,26.38
2024-05-09T18:30:49.693Z,26.90
2024-05-09T18:35:48.988Z,10.65
2024-05-09T18:38:16.213Z,6.50
2024-05-09T18:40:48.970Z,9.40
2024-05-09T18:43:16.976Z,5.07
2024-05-09T18:45:49.469Z,3.97
2024-05-09T18:48:16.624Z,3.78
2024-05-09T18:50:46.520Z,3.90
2024-05-09T18:53:14.665Z,6.47
2024-05-09T18:55:44.889Z,5.32
2024-05-09T18:58:17.106Z,4.80
2024-05-09T19:03:21.044Z,3.63
2024-05-09T19:05:48.902Z,4.97
2024-05-09T19:08:18.663Z,4.95
2024-05-09T19:10:46.047Z,4.28
2024-05-09T19:13:16.561Z,5.82
2024-05-09T19:15:46.257Z,5.82
2024-05-09T19:18:17.226Z,4.32
2024-05-09T19:20:44.431Z,7.40
2024-05-09T19:23:14.195Z,5.45
2024-05-09T19:25:41.117Z,6.75
2024-05-09T19:28:10.832Z,9.15
2024-05-09T19:30:41.318Z,5.05
2024-05-09T19:33:15.153Z,4.90
2024-05-09T19:35:42.718Z,5.22
2024-05-09T19:38:12.589Z,3.83
2024-05-09T19:40:40.110Z,5.57
2024-05-09T19:43:11.142Z,9.00
2024-05-09T19:45:38.357Z,6.32
2024-05-09T19:48:09.077Z,6.38
2024-05-09T19:50:44.138Z,7.53
2024-05-09T19:53:12.560Z,5.50
2024-05-09T19:55:42.664Z,6.50
2024-05-09T19:58:10.939Z,7.68
2024-05-09T20:00:43.166Z,7.82
2024-05-09T20:03:11.860Z,8.20
2024-05-09T20:05:45.501Z,4.93
2024-05-09T20:08:13.226Z,7.07
2024-05-09T20:10:42.947Z,11.32
2024-05-09T20:13:10.089Z,6.88
2024-05-09T20:15:40.862Z,6.20
2024-05-09T20:18:08.332Z,7.65
2024-05-09T20:20:42.534Z,5.75
2024-05-09T20:23:14.369Z,7.22
2024-05-09T20:25:44.942Z,9.18
2024-05-09T20:28:11.960Z,6.53
2024-05-09T20:30:41.596Z,8.15
2024-05-09T20:33:09.759Z,7.43
2024-05-09T20:35:39.816Z,8.80
2024-05-09T20:38:07.054Z,9.68
2024-05-09T20:40:39.972Z,5.38
2024-05-09T20:43:08.771Z,6.55
2024-05-09T20:45:39.252Z,6.57
2024-05-09T20:48:08.334Z,5.10
2024-05-09T20:50:41.287Z,11.80
2024-05-09T20:53:14.123Z,5.38
2024-05-09T20:58:14.363Z,10.40
2024-05-09T21:00:45.990Z,5.70
2024-05-09T21:03:17.825Z,7.30
2024-05-09T21:05:48.849Z,7.40
2024-05-09T21:08:15.948Z,12.00
2024-05-09T21:10:48.271Z,6.32
2024-05-09T21:13:15.418Z,7.50
2024-05-09T21:15:45.027Z,8.80
2024-05-09T21:18:12.152Z,13.73
2024-05-09T21:20:41.715Z,10.15
2024-05-09T21:23:09.082Z,7.03
2024-05-09T21:25:39.298Z,14.65
2024-05-09T21:28:09.455Z,9.73
2024-05-09T21:30:42.539Z,6.28
2024-05-09T21:33:12.540Z,6.32
2024-05-09T21:35:44.931Z,9.60
2024-05-09T21:38:13.934Z,8.95
2024-05-09T21:40:44.770Z,8.68
2024-05-09T21:43:14.958Z,11.52
2024-05-09T21:45:44.877Z,7.07
2024-05-09T21:48:13.243Z,10.55
2024-05-09T21:50:43.031Z,9.45
2024-05-09T21:53:13.801Z,18.20
2024-05-09T21:55:44.070Z,8.73
2024-05-09T21:58:14.787Z,6.80
2024-05-09T22:00:46.480Z,8.05
2024-05-09T22:03:14.170Z,11.23
2024-05-09T22:05:45.041Z,6.03
2024-05-09T22:08:12.558Z,9.82
2024-05-09T22:10:42.230Z,5.80
2024-05-09T22:13:09.402Z,6.32
2024-05-09T22:15:42.365Z,9.15
2024-05-09T22:18:10.577Z,5.22
2024-05-09T22:20:44.844Z,7.07
2024-05-09T22:23:13.411Z,5.97
2024-05-09T22:25:43.289Z,5.13
2024-05-09T22:28:11.021Z,6.03
2024-05-09T22:30:45.672Z,11.00
2024-05-09T22:33:13.040Z,7.78
2024-05-09T22:35:43.054Z,7.43
2024-05-09T22:38:10.170Z,6.30
2024-05-09T22:40:47.319Z,6.05
2024-05-09T22:43:21.760Z,7.03
2024-05-09T22:45:57.129Z,9.68
2024-05-09T22:48:25.113Z,10.75
2024-05-09T22:50:56.045Z,8.25
2024-05-09T22:53:23.965Z,7.03
2024-05-09T22:55:53.613Z,7.93
2024-05-09T22:58:20.929Z,7.32
2024-05-09T23:00:50.841Z,6.20
2024-05-09T23:03:21.991Z,6.30
2024-05-09T23:05:52.255Z,7.17
2024-05-09T23:08:19.178Z,4.60
2024-05-09T23:10:48.842Z,6.47
2024-05-09T23:13:16.153Z,4.88
2024-05-09T23:15:45.870Z,6.88
2024-05-09T23:18:13.096Z,6.75
2024-05-09T23:20:45.325Z,6.05
2024-05-09T23:23:12.481Z,4.80
2024-05-09T23:25:43.652Z,4.93
2024-05-09T23:28:11.049Z,9.35
2024-05-09T23:30:41.812Z,9.23
2024-05-09T23:33:11.009Z,6.40
2024-05-09T23:35:40.918Z,4.90
2024-05-09T23:38:10.710Z,4.95
2024-05-09T23:40:41.608Z,7.40
2024-05-09T23:43:10.353Z,4.78
2024-05-09T23:45:40.948Z,7.70
2024-05-09T23:48:08.966Z,8.55
2024-05-09T23:50:40.374Z,8.43
2024-05-09T23:53:11.110Z,7.00
2024-05-09T23:55:40.972Z,4.70
2024-05-09T23:58:08.456Z,8.65
